createdAt,value
2024-03-02T00:00:52.359Z,63.47
2024-03-02T00:03:21.121Z,63.72
2024-03-02T00:05:52.669Z,63.48
2024-03-02T00:08:26.451Z,63.76
2024-03-02T00:10:53.798Z,62.81
2024-03-02T00:13:21.525Z,63.95
2024-03-02T00:15:49.528Z,62.07
2024-03-02T00:18:21.351Z,63.36
2024-03-02T00:20:48.157Z,62.26
2024-03-02T00:23:16.481Z,62.12
2024-03-02T00:25:44.969Z,63.31
2024-03-02T00:28:22.117Z,63.47
2024-03-02T00:31:07.019Z,62.81
2024-03-02T00:33:35.906Z,62.66
2024-03-02T00:36:04.251Z,65.10
2024-03-02T00:38:31.596Z,70.39
2024-03-02T00:40:59.228Z,72.53
2024-03-02T00:43:47.905Z,73.58
2024-03-02T00:46:18.484Z,73.99
2024-03-02T00:48:57.184Z,74.65
2024-03-02T00:51:25.450Z,74.58
2024-03-02T00:53:53.602Z,76.54
2024-03-02T00:56:20.445Z,76.44
2024-03-02T00:58:47.102Z,76.48
2024-03-02T01:01:13.811Z,77.50
2024-03-02T01:03:40.760Z,77.05
2024-03-02T01:06:08.807Z,78.84
2024-03-02T01:08:35.578Z,77.83
2024-03-02T01:11:02.268Z,77.42
2024-03-02T01:13:28.955Z,77.24
2024-03-02T01:15:55.743Z,78.72
2024-03-02T01:18:23.315Z,78.34
2024-03-02T01:20:52.535Z,76.61
2024-03-02T01:23:20.860Z,77.69
2024-03-02T01:25:48.176Z,77.50
2024-03-02T01:28:14.956Z,77.01
2024-03-02T01:30:41.729Z,77.91
2024-03-02T01:33:08.437Z,77.84
2024-03-02T01:35:35.925Z,77.42
2024-03-02T01:38:02.512Z,77.22
2024-03-02T01:40:30.438Z,77.45
2024-03-02T01:42:59.066Z,76.79
2024-03-02T01:45:25.728Z,76.18
2024-03-02T01:47:52.640Z,76.67
2024-03-02T01:50:26.489Z,76.71
2024-03-02T01:52:53.198Z,76.76
2024-03-02T01:55:19.765Z,76.63
2024-03-02T01:57:48.923Z,75.79
2024-03-02T02:00:16.467Z,75.02
2024-03-02T02:02:43.133Z,75.59
2024-03-02T02:05:10.148Z,74.80
2024-03-02T02:07:36.884Z,75.12
2024-03-02T02:10:03.813Z,75.45
2024-03-02T02:12:30.497Z,75.12
2024-03-02T02:14:58.595Z,76.25
2024-03-02T02:17:25.289Z,76.76
2024-03-02T02:19:51.860Z,76.47
2024-03-02T02:22:19.772Z,77.73
2024-03-02T02:24:46.460Z,78.68
2024-03-02T02:27:16.165Z,78.96
2024-03-02T02:29:43.293Z,78.27
2024-03-02T02:32:09.935Z,77.94
2024-03-02T02:34:36.556Z,79.34
2024-03-02T02:37:03.144Z,79.14
2024-03-02T02:39:31.194Z,79.43
2024-03-02T02:41:57.848Z,79.75
2024-03-02T02:44:24.476Z,79.23
2024-03-02T02:46:50.983Z,79.16
2024-03-02T02:49:18.189Z,78.34
2024-03-02T02:51:44.821Z,79.03
2024-03-02T02:54:11.532Z,78.48
2024-03-02T02:56:39.475Z,78.73
2024-03-02T02:59:06.164Z,78.25
2024-03-02T03:01:32.843Z,77.93
2024-03-02T03:03:59.608Z,76.83
2024-03-02T03:06:26.230Z,77.81
2024-03-02T03:08:52.759Z,77.74
2024-03-02T03:11:19.515Z,77.56
2024-03-02T03:13:47.531Z,77.78
2024-03-02T03:16:14.169Z,78.01
2024-03-02T03:18:40.874Z,78.08
2024-03-02T03:21:07.439Z,77.78
2024-03-02T03:23:34.069Z,78.70
2024-03-02T03:26:00.719Z,77.44
2024-03-02T03:28:27.358Z,77.37
2024-03-02T03:30:55.296Z,76.61
2024-03-02T03:33:21.968Z,76.77
2024-03-02T03:35:49.229Z,77.91
2024-03-02T03:38:15.798Z,76.89
2024-03-02T03:40:42.466Z,77.37
2024-03-02T03:43:09.628Z,77.48
2024-03-02T03:45:36.218Z,77.72
2024-03-02T03:48:04.434Z,76.84
2024-03-02T03:50:31.046Z,76.82
2024-03-02T03:52:57.630Z,77.28
2024-03-02T03:55:24.159Z,77.43
2024-03-02T03:57:50.817Z,76.70
2024-03-02T04:00:17.794Z,77.06
2024-03-02T04:02:44.397Z,76.53
2024-03-02T04:05:12.855Z,76.04
2024-03-02T04:07:41.105Z,76.00
2024-03-02T04:10:09.184Z,75.73
2024-03-02T04:12:37.731Z,74.89
2024-03-02T04:15:07.181Z,75.35
2024-03-02T04:17:35.008Z,75.41
2024-03-02T04:20:01.833Z,75.24
2024-03-02T04:22:29.893Z,74.40
2024-03-02T04:24:56.957Z,75.30
2024-03-02T04:27:23.700Z,74.61
2024-03-02T04:29:50.770Z,74.54
2024-03-02T04:32:17.563Z,74.19
2024-03-02T04:34:44.353Z,74.39
2024-03-02T04:37:13.735Z,73.75
2024-03-02T04:39:41.765Z,74.57
2024-03-02T04:42:08.350Z,74.15
2024-03-02T04:44:34.894Z,74.73
2024-03-02T04:47:01.534Z,74.37
2024-03-02T04:49:28.290Z,75.98
2024-03-02T04:51:55.030Z,75.73
2024-03-02T04:54:21.691Z,75.27
2024-03-02T04:56:52.515Z,75.29
2024-03-02T04:59:19.332Z,76.36
2024-03-02T05:01:46.764Z,76.27
2024-03-02T05:04:13.279Z,76.31
2024-03-02T05:06:42.839Z,76.90
2024-03-02T05:09:09.515Z,76.03
2024-03-02T05:11:39.150Z,75.92
2024-03-02T05:14:07.798Z,75.62
2024-03-02T05:16:35.107Z,75.91
2024-03-02T05:19:01.755Z,76.06
2024-03-02T05:21:28.418Z,75.94
2024-03-02T05:23:55.040Z,76.12
2024-03-02T05:26:21.647Z,75.10
2024-03-02T05:28:48.373Z,76.66
2024-03-02T05:31:17.612Z,75.34
2024-03-02T05:33:44.303Z,76.27
2024-03-02T05:36:10.994Z,77.15
2024-03-02T05:38:37.702Z,76.10
2024-03-02T05:41:04.610Z,75.27
2024-03-02T05:43:31.125Z,75.73
2024-03-02T05:45:57.766Z,76.02
2024-03-02T05:48:25.744Z,76.07
2024-03-02T05:50:52.308Z,76.65
2024-03-02T05:53:18.893Z,76.08
2024-03-02T05:55:46.458Z,77.15
2024-03-02T05:58:27.036Z,76.54
2024-03-02T06:00:55.706Z,76.82
2024-03-02T06:03:22.411Z,76.59
2024-03-02T06:05:50.481Z,75.90
2024-03-02T06:08:17.115Z,76.29
2024-03-02T06:10:44.326Z,75.91
2024-03-02T06:13:10.916Z,76.80
2024-03-02T06:15:37.628Z,76.21
2024-03-02T06:18:04.858Z,75.93
2024-03-02T06:20:35.216Z,76.45
2024-03-02T06:23:05.027Z,76.53
2024-03-02T06:25:31.722Z,75.58
2024-03-02T06:27:58.343Z,76.02
2024-03-02T06:30:25.020Z,75.45
2024-03-02T06:32:51.697Z,75.26
2024-03-02T06:35:18.342Z,76.10
2024-03-02T06:37:44.992Z,75.42
2024-03-02T06:40:13.075Z,75.25
2024-03-02T06:42:39.669Z,75.66
2024-03-02T06:45:07.302Z,74.85
2024-03-02T06:47:33.954Z,74.32
2024-03-02T06:50:00.833Z,74.14
2024-03-02T06:52:27.762Z,74.71
2024-03-02T06:54:54.406Z,74.41
2024-03-02T06:57:22.648Z,73.74
2024-03-02T06:59:51.894Z,73.74
2024-03-02T07:02:18.541Z,73.64
2024-03-02T07:04:46.396Z,73.68
2024-03-02T07:07:13.036Z,73.72
2024-03-02T07:09:39.800Z,72.97
2024-03-02T07:12:06.673Z,72.51
2024-03-02T07:14:53.426Z,71.81
2024-03-02T07:17:19.999Z,72.33
2024-03-02T07:19:46.695Z,71.42
2024-03-02T07:22:13.296Z,71.69
2024-03-02T07:24:41.718Z,71.72
2024-03-02T07:27:08.475Z,71.05
2024-03-02T07:29:36.789Z,69.99
2024-03-02T07:32:03.685Z,70.72
2024-03-02T07:34:30.317Z,70.43
2024-03-02T07:36:57.069Z,70.94
2024-03-02T07:39:23.946Z,70.13
2024-03-02T07:41:50.689Z,70.11
2024-03-02T07:44:17.618Z,70.59
2024-03-02T07:46:47.439Z,70.38
2024-03-02T07:49:15.175Z,70.48
2024-03-02T07:51:41.722Z,69.42
2024-03-02T07:54:08.542Z,69.50
2024-03-02T07:56:35.321Z,69.84
2024-03-02T07:59:02.319Z,69.29
2024-03-02T08:01:29.092Z,69.98
2024-03-02T08:03:59.263Z,70.23
2024-03-02T08:06:28.564Z,69.91
2024-03-02T08:08:55.545Z,70.08
2024-03-02T08:11:22.479Z,70.46
2024-03-02T08:13:49.431Z,69.63
2024-03-02T08:16:16.205Z,69.91
2024-03-02T08:18:42.964Z,68.68
2024-03-02T08:21:10.978Z,69.50
2024-03-02T08:23:39.843Z,67.42
2024-03-02T08:26:07.722Z,65.64
2024-03-02T08:28:34.393Z,65.09
2024-03-02T08:31:01.102Z,64.06
2024-03-02T08:33:27.725Z,63.59
2024-03-02T08:35:54.372Z,61.75
2024-03-02T08:38:22.384Z,61.32
2024-03-02T08:40:48.983Z,59.43
2024-03-02T08:43:15.548Z,62.61
2024-03-02T08:45:42.736Z,62.94
2024-03-02T08:48:09.668Z,61.51
2024-03-02T08:50:36.621Z,61.66
2024-03-02T08:53:04.104Z,62.20
2024-03-02T08:55:32.089Z,62.72
2024-03-02T08:57:58.807Z,62.24
2024-03-02T09:00:26.202Z,60.83
2024-03-02T09:02:53.052Z,61.18
2024-03-02T09:05:19.629Z,61.37
2024-03-02T09:07:46.273Z,62.13
2024-03-02T09:10:13.563Z,61.30
2024-03-02T09:12:41.431Z,61.52
2024-03-02T09:15:08.865Z,61.82
2024-03-02T09:17:35.620Z,60.98
2024-03-02T09:20:02.223Z,60.75
2024-03-02T09:22:28.809Z,61.92
2024-03-02T09:24:55.494Z,60.72
2024-03-02T09:27:22.221Z,62.09
2024-03-02T09:29:50.150Z,62.24
2024-03-02T09:32:16.876Z,62.43
2024-03-02T09:34:45.120Z,61.50
2024-03-02T09:37:12.088Z,61.02
2024-03-02T09:39:38.680Z,62.25
2024-03-02T09:42:05.958Z,61.35
2024-03-02T09:44:32.394Z,60.50
2024-03-02T09:47:00.442Z,60.57
2024-03-02T09:49:27.011Z,60.41
2024-03-02T09:51:53.690Z,60.60
2024-03-02T09:54:22.965Z,60.73
2024-03-02T09:56:50.548Z,60.96
2024-03-02T09:59:20.187Z,60.41
2024-03-02T10:01:57.428Z,60.41
2024-03-02T10:04:26.668Z,58.53
2024-03-02T10:06:53.773Z,58.49
2024-03-02T10:09:28.247Z,59.63
2024-03-02T10:11:54.837Z,58.01
2024-03-02T10:14:23.383Z,58.06
2024-03-02T10:16:49.911Z,58.55
2024-03-02T10:19:20.524Z,57.76
2024-03-02T10:21:48.965Z,56.69
2024-03-02T10:24:15.674Z,59.02
2024-03-02T10:26:43.142Z,56.95
2024-03-02T10:29:11.254Z,57.24
2024-03-02T10:31:38.970Z,57.52
2024-03-02T10:34:05.932Z,57.13
2024-03-02T10:36:33.171Z,58.90
2024-03-02T10:39:01.145Z,56.94
2024-03-02T10:41:30.488Z,55.60
2024-03-02T10:44:00.530Z,56.12
2024-03-02T10:46:30.181Z,55.74
2024-03-02T10:48:56.903Z,56.40
2024-03-02T10:51:23.528Z,54.79
2024-03-02T10:53:50.269Z,57.13
2024-03-02T10:56:28.500Z,56.27
2024-03-02T10:58:56.828Z,56.69
2024-03-02T11:01:23.962Z,54.63
2024-03-02T11:03:50.653Z,56.21
2024-03-02T11:06:17.689Z,54.83
2024-03-02T11:08:45.693Z,55.54
2024-03-02T11:11:17.068Z,56.11
2024-03-02T11:13:50.332Z,55.06
2024-03-02T11:16:17.745Z,56.18
2024-03-02T11:18:44.792Z,54.15
2024-03-02T11:21:11.304Z,53.41
2024-03-02T11:23:37.983Z,53.85
2024-03-02T11:26:20.266Z,54.83
2024-03-02T11:28:48.470Z,54.63
2024-03-02T11:31:15.035Z,53.31
2024-03-02T11:33:41.648Z,55.34
2024-03-02T11:36:12.345Z,54.12
2024-03-02T11:38:39.533Z,53.79
2024-03-02T11:41:10.818Z,54.91
2024-03-02T11:43:40.938Z,53.46
2024-03-02T11:46:09.343Z,52.65
2024-03-02T11:48:36.947Z,54.34
2024-03-02T11:51:03.971Z,55.23
2024-03-02T11:53:35.507Z,52.85
2024-03-02T11:56:03.170Z,52.85
2024-03-02T11:58:30.387Z,53.83
2024-03-02T12:00:57.710Z,52.88
2024-03-02T12:03:27.037Z,51.25
2024-03-02T12:05:54.499Z,51.48
2024-03-02T12:08:22.369Z,50.96
2024-03-02T12:10:59.319Z,52.39
2024-03-02T12:13:35.088Z,50.21
2024-03-02T12:16:01.644Z,51.21
2024-03-02T12:18:29.594Z,51.12
2024-03-02T12:20:59.680Z,51.33
2024-03-02T12:23:26.550Z,51.26
2024-03-02T12:25:53.337Z,52.30
2024-03-02T12:28:20.421Z,51.35
2024-03-02T12:30:48.911Z,51.06
2024-03-02T12:33:15.655Z,51.09
2024-03-02T12:35:43.854Z,51.16
2024-03-02T12:38:11.943Z,52.19
2024-03-02T12:40:38.605Z,52.23
2024-03-02T12:43:06.401Z,51.90
2024-03-02T12:45:33.077Z,51.88
2024-03-02T12:48:01.125Z,52.26
2024-03-02T12:50:27.772Z,52.45
2024-03-02T12:52:56.166Z,51.87
2024-03-02T12:55:24.271Z,50.50
2024-03-02T12:57:51.871Z,50.28
2024-03-02T13:00:19.990Z,51.12
2024-03-02T13:02:46.931Z,49.35
2024-03-02T13:05:14.272Z,48.89
2024-03-02T13:07:41.994Z,51.05
2024-03-02T13:10:10.410Z,52.25
2024-03-02T13:12:38.295Z,48.96
2024-03-02T13:15:06.682Z,48.90
2024-03-02T13:17:37.870Z,51.14
2024-03-02T13:20:09.605Z,50.00
2024-03-02T13:22:36.856Z,50.07
2024-03-02T13:25:07.825Z,50.31
2024-03-02T13:27:36.169Z,50.37
2024-03-02T13:30:03.996Z,49.99
2024-03-02T13:32:30.702Z,49.27
2024-03-02T13:34:57.309Z,50.95
2024-03-02T13:37:24.068Z,50.00
2024-03-02T13:39:50.935Z,50.03
2024-03-02T13:42:17.820Z,50.35
2024-03-02T13:44:50.900Z,50.96
2024-03-02T13:47:17.496Z,49.31
2024-03-02T13:49:50.417Z,49.84
2024-03-02T13:52:19.737Z,49.87
2024-03-02T13:54:47.193Z,50.89
2024-03-02T13:57:14.365Z,50.92
2024-03-02T13:59:41.116Z,50.03
2024-03-02T14:02:10.096Z,50.12
2024-03-02T14:04:37.857Z,49.63
2024-03-02T14:07:05.312Z,49.13
2024-03-02T14:09:31.974Z,49.27
2024-03-02T14:11:58.716Z,51.31
2024-03-02T14:14:25.593Z,50.85
2024-03-02T14:16:53.315Z,51.56
2024-03-02T14:19:22.428Z,50.80
2024-03-02T14:21:49.304Z,51.20
2024-03-02T14:24:15.932Z,51.58
2024-03-02T14:26:42.654Z,50.33
2024-03-02T14:29:09.419Z,49.76
2024-03-02T14:31:35.995Z,50.18
2024-03-02T14:34:02.641Z,51.81
2024-03-02T14:36:30.746Z,51.78
2024-03-02T14:38:57.646Z,51.69
2024-03-02T14:41:25.770Z,50.13
2024-03-02T14:43:52.516Z,50.89
2024-03-02T14:46:19.380Z,52.07
2024-03-02T14:48:46.899Z,51.02
2024-03-02T14:51:14.465Z,51.14
2024-03-02T14:53:42.778Z,51.22
2024-03-02T14:56:09.532Z,50.50
2024-03-02T14:58:37.502Z,50.65
2024-03-02T15:01:04.769Z,50.47
2024-03-02T15:03:31.509Z,50.16
2024-03-02T15:05:58.201Z,52.32
2024-03-02T15:08:24.849Z,52.57
2024-03-02T15:10:53.226Z,51.64
2024-03-02T15:13:19.950Z,52.07
2024-03-02T15:15:47.239Z,52.50
2024-03-02T15:18:13.898Z,52.59
2024-03-02T15:20:41.920Z,53.61
2024-03-02T15:23:08.631Z,52.96
2024-03-02T15:25:35.195Z,51.66
2024-03-02T15:28:03.260Z,51.66
2024-03-02T15:30:29.974Z,51.58
2024-03-02T15:32:56.573Z,51.60
2024-03-02T15:35:23.238Z,52.44
2024-03-02T15:37:54.856Z,51.55
2024-03-02T15:40:21.850Z,52.21
2024-03-02T15:42:48.560Z,53.50
2024-03-02T15:45:16.532Z,52.03
2024-03-02T15:47:43.375Z,52.21
2024-03-02T15:50:10.726Z,52.64
2024-03-02T15:52:37.527Z,52.95
2024-03-02T15:55:07.344Z,53.20
2024-03-02T15:57:34.485Z,51.19
2024-03-02T16:00:02.915Z,52.09
2024-03-02T16:02:30.904Z,52.72
2024-03-02T16:04:57.456Z,52.15
2024-03-02T16:07:24.022Z,52.99
2024-03-02T16:09:50.624Z,52.23
2024-03-02T16:12:17.799Z,53.49
2024-03-02T16:14:44.151Z,52.78
2024-03-02T16:17:10.944Z,53.08
2024-03-02T16:19:41.927Z,53.35
2024-03-02T16:22:12.013Z,53.45
2024-03-02T16:24:38.809Z,53.17
2024-03-02T16:27:05.542Z,53.38
2024-03-02T16:29:32.548Z,52.75
2024-03-02T16:31:59.748Z,53.23
2024-03-02T16:34:26.293Z,54.29
2024-03-02T16:36:54.393Z,53.82
2024-03-02T16:39:20.937Z,54.02
2024-03-02T16:41:48.025Z,53.21
2024-03-02T16:44:15.158Z,53.90
2024-03-02T16:46:43.809Z,54.11
2024-03-02T16:49:10.416Z,56.25
2024-03-02T16:51:40.067Z,55.04
2024-03-02T16:54:08.102Z,55.69
2024-03-02T16:56:39.135Z,55.32
2024-03-02T16:59:05.708Z,56.25
2024-03-02T17:01:33.049Z,56.36
2024-03-02T17:04:00.628Z,56.34
2024-03-02T17:06:27.337Z,56.70
2024-03-02T17:08:53.917Z,57.12
2024-03-02T17:11:21.959Z,57.23
2024-03-02T17:13:48.561Z,57.79
2024-03-02T17:16:16.612Z,58.72
2024-03-02T17:18:43.231Z,58.72
2024-03-02T17:21:09.810Z,59.24
2024-03-02T17:23:36.489Z,60.03
2024-03-02T17:26:03.178Z,59.52
2024-03-02T17:28:33.057Z,60.67
2024-03-02T17:31:00.881Z,61.04
2024-03-02T17:33:27.587Z,61.49
2024-03-02T17:35:54.521Z,61.85
2024-03-02T17:38:21.359Z,61.75
2024-03-02T17:40:48.010Z,61.46
2024-03-02T17:43:14.761Z,61.70
2024-03-02T17:45:43.201Z,61.52
2024-03-02T17:48:10.282Z,62.00
2024-03-02T17:50:36.969Z,61.92
2024-03-02T17:53:03.726Z,62.03
2024-03-02T17:55:30.335Z,62.02
2024-03-02T17:57:57.225Z,62.27
2024-03-02T18:00:23.763Z,62.04
2024-03-02T18:02:51.689Z,62.24
2024-03-02T18:05:18.475Z,63.23
2024-03-02T18:07:45.074Z,62.47
2024-03-02T18:10:11.849Z,62.42
2024-03-02T18:12:39.511Z,63.07
2024-03-02T18:15:10.064Z,62.58
2024-03-02T18:17:36.817Z,63.05
2024-03-02T18:20:05.926Z,62.62
2024-03-02T18:22:33.326Z,62.72
2024-03-02T18:25:00.741Z,62.02
2024-03-02T18:27:27.623Z,62.60
2024-03-02T18:29:55.062Z,62.33
2024-03-02T18:32:21.958Z,61.93
2024-03-02T18:34:48.682Z,61.76
2024-03-02T18:37:17.930Z,62.25
2024-03-02T18:39:45.010Z,62.53
2024-03-02T18:42:11.551Z,61.65
2024-03-02T18:44:38.206Z,61.45
2024-03-02T18:47:04.874Z,62.24
2024-03-02T18:49:31.454Z,61.74
2024-03-02T18:51:58.107Z,62.06
2024-03-02T18:54:26.075Z,62.11
2024-03-02T18:56:52.735Z,62.34
2024-03-02T18:59:19.488Z,62.88
2024-03-02T19:01:46.237Z,62.85
2024-03-02T19:04:13.135Z,62.48
2024-03-02T19:06:39.724Z,63.18
2024-03-02T19:09:06.376Z,63.00
2024-03-02T19:11:34.320Z,63.55
2024-03-02T19:14:00.934Z,63.44
2024-03-02T19:16:27.709Z,63.13
2024-03-02T19:18:54.275Z,63.70
2024-03-02T19:21:20.901Z,63.07
2024-03-02T19:23:47.532Z,63.82
2024-03-02T19:26:19.797Z,63.86
2024-03-02T19:28:49.440Z,63.66
2024-03-02T19:31:16.157Z,63.21
2024-03-02T19:33:42.807Z,62.77
2024-03-02T19:36:09.576Z,62.60
2024-03-02T19:38:36.464Z,62.74
2024-03-02T19:41:03.226Z,62.61
2024-03-02T19:43:29.789Z,63.96
2024-03-02T19:45:57.738Z,64.18
2024-03-02T19:48:24.286Z,63.53
2024-03-02T19:50:51.440Z,63.28
2024-03-02T19:53:18.103Z,63.52
2024-03-02T19:55:45.550Z,63.31
2024-03-02T19:58:12.430Z,62.84
2024-03-02T20:00:39.370Z,63.73
2024-03-02T20:03:07.452Z,63.71
2024-03-02T20:05:33.975Z,64.40
2024-03-02T20:08:00.569Z,63.27
2024-03-02T20:10:27.182Z,64.48
2024-03-02T20:12:53.908Z,64.16
2024-03-02T20:15:20.893Z,64.95
2024-03-02T20:17:47.650Z,63.86
2024-03-02T20:20:17.048Z,65.80
2024-03-02T20:22:43.975Z,64.24
2024-03-02T20:25:14.649Z,65.00
2024-03-02T20:27:43.127Z,64.61
2024-03-02T20:30:11.364Z,64.76
2024-03-02T20:32:38.030Z,63.58
2024-03-02T20:35:05.123Z,63.95
2024-03-02T20:37:33.109Z,64.71
2024-03-02T20:40:00.292Z,64.09
2024-03-02T20:42:27.107Z,64.75
2024-03-02T20:44:53.868Z,64.19
2024-03-02T20:47:20.447Z,65.44
2024-03-02T20:49:47.019Z,65.74
2024-03-02T20:52:13.806Z,65.86
2024-03-02T20:54:41.864Z,64.88
2024-03-02T20:57:08.497Z,65.32
2024-03-02T20:59:35.465Z,65.65
2024-03-02T21:02:03.435Z,65.36
2024-03-02T21:04:30.061Z,64.38
2024-03-02T21:06:57.049Z,65.49
2024-03-02T21:09:23.524Z,64.84
2024-03-02T21:11:51.618Z,64.96
2024-03-02T21:14:18.255Z,65.52
2024-03-02T21:16:44.796Z,64.50
2024-03-02T21:19:12.856Z,64.95
2024-03-02T21:21:42.185Z,65.08
2024-03-02T21:24:08.818Z,64.48
2024-03-02T21:26:38.746Z,65.75
2024-03-02T21:29:06.711Z,64.73
2024-03-02T21:31:33.364Z,64.82
2024-03-02T21:34:00.001Z,65.66
2024-03-02T21:36:26.910Z,66.26
2024-03-02T21:38:53.513Z,66.36
2024-03-02T21:41:20.139Z,65.94
2024-03-02T21:43:46.729Z,66.08
2024-03-02T21:46:14.773Z,65.58
2024-03-02T21:48:41.679Z,65.44
2024-03-02T21:51:08.509Z,66.12
2024-03-02T21:53:36.896Z,65.19
2024-03-02T21:56:03.799Z,65.90
2024-03-02T21:58:30.388Z,65.51
2024-03-02T22:00:57.076Z,65.97
2024-03-02T22:03:24.983Z,66.62
2024-03-02T22:05:52.058Z,65.72
2024-03-02T22:08:18.907Z,66.56
2024-03-02T22:10:45.503Z,66.22
2024-03-02T22:13:12.150Z,67.02
2024-03-02T22:15:38.778Z,66.92
2024-03-02T22:18:05.683Z,66.41
2024-03-02T22:20:33.602Z,66.50
2024-03-02T22:23:00.119Z,65.29
2024-03-02T22:25:26.679Z,65.44
2024-03-02T22:27:56.969Z,65.41
2024-03-02T22:30:23.890Z,65.75
2024-03-02T22:32:50.665Z,65.12
2024-03-02T22:35:17.417Z,65.21
2024-03-02T22:37:45.395Z,64.49
2024-03-02T22:40:12.386Z,65.85
2024-03-02T22:42:39.037Z,65.24
2024-03-02T22:45:06.480Z,65.03
2024-03-02T22:47:33.194Z,64.60
2024-03-02T22:49:59.792Z,65.47
2024-03-02T22:52:26.477Z,64.78
2024-03-02T22:54:54.420Z,64.65
2024-03-02T22:57:21.121Z,64.42
2024-03-02T22:59:49.064Z,64.19
2024-03-02T23:02:17.942Z,63.82
2024-03-02T23:04:44.617Z,64.23
2024-03-02T23:07:11.270Z,64.07
2024-03-02T23:09:38.151Z,65.40
2024-03-02T23:12:06.665Z,65.40
2024-03-02T23:14:33.241Z,65.18
2024-03-02T23:16:59.872Z,65.87
2024-03-02T23:19:26.511Z,65.55
2024-03-02T23:21:53.191Z,67.21
2024-03-02T23:24:19.918Z,66.81
2024-03-02T23:26:46.475Z,66.66
2024-03-02T23:29:14.611Z,67.03
2024-03-02T23:31:41.157Z,67.53
2024-03-02T23:34:10.087Z,67.92
2024-03-02T23:36:38.294Z,67.69
2024-03-02T23:39:05.295Z,67.53
2024-03-02T23:41:31.936Z,67.56
2024-03-02T23:44:00.534Z,66.51
2024-03-02T23:46:28.974Z,67.33
2024-03-02T23:48:55.620Z,66.86
2024-03-02T23:51:22.303Z,65.86
2024-03-02T23:53:48.847Z,67.02
2024-03-02T23:56:15.510Z,65.81
2024-03-02T23:58:42.220Z,65.67
